Time;durP1;ratioP1;P1;durP2;ratioP2;P2;SDS_P1;SDS_P2;PMS_P1;PMS_P2;Temp;Humidity;BMP_temperature;BMP_pressure;BME280_temperature;BME280_humidity;BME280_pressure;Samples;Min_cycle;Max_cycle;Signal;HPM_P1;HPM_P2
2021/10/12 07:07:17;;;;;;;7.47;3.90;;;;;;;;;;12367302;22;15365488;-86
2021/10/12 07:12:19;;;;;;;;;;;;;;;;;;12978934;22;20058;-86
2021/10/12 07:17:20;;;;;;;5.32;3.40;;;;;;;;;;12982848;22;19907;-82
2021/10/12 07:22:24;;;;;;;6.72;3.67;;;;;;;;;;13008078;22;20043;-82
2021/10/12 07:27:25;;;;;;;7.47;3.92;;;;;;;;;;13003988;22;20062;-82
2021/10/12 07:32:26;;;;;;;7.88;4.40;;;;;;;;;;12976060;22;20530;-83
2021/10/12 07:37:27;;;;;;;6.35;3.97;;;;;;;;;;13003726;22;20030;-81
2021/10/12 07:42:28;;;;;;;8.75;5.90;;;;;;;;;;12976889;22;20075;-83
2021/10/12 07:47:29;;;;;;;10.00;5.43;;;;;;;;;;12975333;22;20031;-81
2021/10/12 07:52:32;;;;;;;9.57;6.45;;;;;;;;;;13001751;22;20004;-80
2021/10/12 07:57:33;;;;;;;11.07;6.70;;;;;;;;;;12978826;22;20008;-84
2021/10/12 08:02:36;;;;;;;8.95;6.40;;;;;;;;;;12980126;22;20015;-85
2021/10/12 08:07:50;;;;;;;7.88;5.30;;;;;;;;;;12969222;22;20015;-85
2021/10/12 08:18:12;;;;;;;7.17;4.50;;;;;;;;;;13010968;22;20012;-86
2021/10/12 08:23:13;;;;;;;7.55;4.28;;;;;;;;;;12970500;22;20004;-86
2021/10/12 08:28:16;;;;;;;8.30;4.70;;;;;;;;;;12997701;22;20008;-86
2021/10/12 08:33:17;;;;;;;9.05;4.90;;;;;;;;;;12976510;22;20003;-85
2021/10/12 08:38:19;;;;;;;6.32;4.53;;;;;;;;;;12979760;22;20027;-86
2021/10/12 08:43:20;;;;;;;7.07;4.75;;;;;;;;;;12971906;22;20010;-84
2021/10/12 08:48:21;;;;;;;7.65;4.90;;;;;;;;;;12974648;22;20030;-85
2021/10/12 08:53:31;;;;;;;9.00;5.80;;;;;;;;;;12969580;22;20012;-85
2021/10/12 08:58:59;;;;;;;7.40;5.30;;;;;;;;;;12992741;22;20079;-85
2021/10/12 09:04:12;;;;;;;7.50;5.05;;;;;;;;;;12946716;22;20007;-86
2021/10/12 09:14:56;;;;;;;7.30;5.32;;;;;;;;;;13004422;22;20016;-86
2021/10/12 09:19:59;;;;;;;7.47;5.60;;;;;;;;;;12974342;22;20015;-87
2021/10/12 09:25:20;;;;;;;5.95;4.82;;;;;;;;;;12839932;23;20068;-87
2021/10/12 09:30:42;;;;;;;9.60;5.78;;;;;;;;;;12631455;23;20010;-86
2021/10/12 09:36:14;;;;;;;7.53;5.65;;;;;;;;;;12947300;22;20042;-86
2021/10/12 09:41:16;;;;;;;8.88;4.97;;;;;;;;;;12974525;22;20011;-85
2021/10/12 09:46:28;;;;;;;8.20;5.75;;;;;;;;;;12979535;22;20376;-85
2021/10/12 09:51:49;;;;;;;7.57;4.93;;;;;;;;;;13004772;22;20011;-84
2021/10/12 09:56:51;;;;;;;8.05;5.28;;;;;;;;;;12980248;22;20072;-85
2021/10/12 10:01:53;;;;;;;7.35;4.63;;;;;;;;;;12982316;22;20000;-85
2021/10/12 10:07:02;;;;;;;6.53;4.28;;;;;;;;;;12980184;22;20005;-85
2021/10/12 10:12:07;;;;;;;7.40;4.38;;;;;;;;;;12974059;22;20071;-84
2021/10/12 10:17:20;;;;;;;7.13;4.20;;;;;;;;;;12971571;22;20022;-83
2021/10/12 10:22:43;;;;;;;7.03;3.53;;;;;;;;;;12972845;22;20463;-83
2021/10/12 10:27:45;;;;;;;8.30;3.90;;;;;;;;;;13007226;22;20024;-82
2021/10/12 10:32:46;;;;;;;6.75;4.00;;;;;;;;;;12980180;22;20332;-84
2021/10/12 10:37:50;;;;;;;7.60;4.00;;;;;;;;;;12983177;22;19999;-84
2021/10/12 10:43:08;;;;;;;6.40;4.10;;;;;;;;;;13008912;22;20003;-84
2021/10/12 10:48:10;;;;;;;5.20;3.47;;;;;;;;;;12985611;22;20012;-84
2021/10/12 10:53:13;;;;;;;6.50;3.53;;;;;;;;;;12985028;22;20063;-85
2021/10/12 10:58:21;;;;;;;6.07;3.47;;;;;;;;;;12987532;22;20008;-86
2021/10/12 11:09:03;;;;;;;5.25;2.97;;;;;;;;;;13017432;22;20000;-85
2021/10/12 11:14:04;;;;;;;6.07;3.22;;;;;;;;;;12987882;22;20012;-85
2021/10/12 11:19:12;;;;;;;6.50;3.70;;;;;;;;;;13017426;22;20074;-85
2021/10/12 11:24:15;;;;;;;6.28;5.05;;;;;;;;;;13037150;22;20015;-86
2021/10/12 11:29:17;;;;;;;9.00;6.00;;;;;;;;;;12992948;22;20087;-85
2021/10/12 11:51:29;;;;;;;4.50;3.45;;;;;;;;;;13010074;22;20011;-85
2021/10/12 11:56:33;;;;;;;5.07;3.00;;;;;;;;;;12975359;22;20011;-84
2021/10/12 12:01:37;;;;;;;3.72;3.08;;;;;;;;;;12947358;22;20007;-84
2021/10/12 12:06:39;;;;;;;7.32;6.25;;;;;;;;;;12970355;22;20004;-85
2021/10/12 12:11:41;;;;;;;2.95;1.30;;;;;;;;;;12970724;22;20012;-85
2021/10/12 12:17:10;;;;;;;2.97;1.60;;;;;;;;;;12969418;22;20062;-87
2021/10/12 12:27:53;;;;;;;5.07;3.67;;;;;;;;;;12948519;22;20011;-85
2021/10/12 12:32:56;;;;;;;3.83;2.90;;;;;;;;;;12969750;22;20008;-86
2021/10/12 12:38:02;;;;;;;5.28;2.42;;;;;;;;;;12984904;22;20072;-86
2021/10/12 12:43:26;;;;;;;3.40;2.35;;;;;;;;;;13014151;22;20007;-86
2021/10/12 12:48:27;;;;;;;3.55;2.47;;;;;;;;;;13016106;22;19987;-86
2021/10/12 12:53:38;;;;;;;3.40;1.98;;;;;;;;;;13016803;22;19999;-85
2021/10/12 12:58:40;;;;;;;2.05;1.00;;;;;;;;;;12988261;22;20016;-87
2021/10/12 13:03:42;;;;;;;3.42;1.42;;;;;;;;;;12973429;22;20058;-86
2021/10/12 13:08:44;;;;;;;2.08;1.10;;;;;;;;;;13008448;22;20071;-86
2021/10/12 13:13:45;;;;;;;4.45;1.63;;;;;;;;;;13016056;22;20011;-86
2021/10/12 13:18:46;;;;;;;3.35;1.80;;;;;;;;;;13008043;22;20352;-86
2021/10/12 13:23:47;;;;;;;2.50;1.20;;;;;;;;;;12973560;22;19996;-87
2021/10/12 13:28:49;;;;;;;4.50;1.25;;;;;;;;;;12971630;22;20000;-88
2021/10/12 13:33:50;;;;;;;4.60;1.20;;;;;;;;;;12972816;22;20014;-87
2021/10/12 13:38:51;;;;;;;3.85;1.60;;;;;;;;;;12974783;22;20016;-87
2021/10/12 13:43:52;;;;;;;2.67;1.27;;;;;;;;;;12970830;22;20035;-86
2021/10/12 13:48:53;;;;;;;3.33;0.95;;;;;;;;;;12974870;22;20004;-86
2021/10/12 13:53:54;;;;;;;4.43;1.80;;;;;;;;;;12979392;22;20012;-86
2021/10/12 13:58:55;;;;;;;2.17;0.90;;;;;;;;;;12971694;22;20007;-86
2021/10/12 14:03:56;;;;;;;3.30;1.10;;;;;;;;;;12969516;22;20004;-85
2021/10/12 14:08:57;;;;;;;3.55;1.30;;;;;;;;;;12968604;22;20011;-87
2021/10/12 14:13:58;;;;;;;4.30;1.50;;;;;;;;;;12972882;22;20030;-86
2021/10/12 14:18:59;;;;;;;4.65;1.60;;;;;;;;;;12974277;22;20103;-87
2021/10/12 14:24:00;;;;;;;3.33;1.50;;;;;;;;;;12972919;22;20426;-86
2021/10/12 14:29:01;;;;;;;4.22;1.55;;;;;;;;;;12975346;22;20007;-85
2021/10/12 14:34:02;;;;;;;3.28;1.50;;;;;;;;;;12973703;22;20004;-85
2021/10/12 14:39:03;;;;;;;2.55;1.30;;;;;;;;;;12972975;22;20006;-85
2021/10/12 14:44:04;;;;;;;3.60;1.45;;;;;;;;;;12973361;22;19999;-85
2021/10/12 14:49:05;;;;;;;4.80;1.40;;;;;;;;;;12981457;22;20004;-85
2021/10/12 14:54:08;;;;;;;2.00;1.10;;;;;;;;;;12975645;22;20063;-85
2021/10/12 14:59:09;;;;;;;3.60;1.63;;;;;;;;;;12976128;22;20007;-86
2021/10/12 15:04:11;;;;;;;2.78;1.13;;;;;;;;;;12976038;22;19996;-85
2021/10/12 15:09:12;;;;;;;2.33;1.30;;;;;;;;;;12975827;22;20004;-85
2021/10/12 15:14:15;;;;;;;2.53;1.20;;;;;;;;;;12974546;22;20030;-86
2021/10/12 15:19:17;;;;;;;3.03;1.40;;;;;;;;;;12974864;22;20050;-86
2021/10/12 15:24:25;;;;;;;3.47;1.30;;;;;;;;;;12975509;22;20035;-86
2021/10/12 15:29:26;;;;;;;3.83;1.48;;;;;;;;;;12978276;22;20023;-86
2021/10/12 15:34:27;;;;;;;3.35;1.30;;;;;;;;;;12993533;22;20067;-85
2021/10/12 15:39:30;;;;;;;5.47;1.77;;;;;;;;;;12975784;22;20004;-85
2021/10/12 15:44:33;;;;;;;3.50;1.30;;;;;;;;;;12974535;22;20000;-85
2021/10/12 15:49:34;;;;;;;2.85;1.30;;;;;;;;;;12977363;22;20008;-84
2021/10/12 15:54:35;;;;;;;3.35;1.42;;;;;;;;;;12975779;22;20014;-85
2021/10/12 15:59:36;;;;;;;2.42;1.20;;;;;;;;;;12970844;22;20006;-85
2021/10/12 16:04:37;;;;;;;4.38;1.40;;;;;;;;;;12969247;22;20014;-86
2021/10/12 16:09:38;;;;;;;4.65;1.52;;;;;;;;;;12968278;22;20012;-86
2021/10/12 16:20:05;;;;;;;4.10;1.42;;;;;;;;;;13024037;22;20573;-86
2021/10/12 16:25:06;;;;;;;4.72;1.25;;;;;;;;;;12999511;22;20008;-87
2021/10/12 16:30:07;;;;;;;2.25;1.02;;;;;;;;;;12987309;22;20000;-87
2021/10/12 16:35:08;;;;;;;1.80;1.10;;;;;;;;;;12974279;22;20044;-87
2021/10/12 16:40:15;;;;;;;3.08;1.23;;;;;;;;;;12972603;22;20012;-88
2021/10/12 16:45:18;;;;;;;2.15;0.98;;;;;;;;;;12973063;22;20003;-88
2021/10/12 16:50:18;;;;;;;3.40;1.58;;;;;;;;;;12970913;22;20181;-87
2021/10/12 16:55:20;;;;;;;2.85;1.40;;;;;;;;;;12967866;22;20000;-86
2021/10/12 17:00:21;;;;;;;2.97;1.70;;;;;;;;;;12969534;22;20004;-86
2021/10/12 17:05:22;;;;;;;3.30;1.95;;;;;;;;;;12971049;22;19999;-86
2021/10/12 17:10:23;;;;;;;4.85;2.20;;;;;;;;;;12968556;22;20061;-86
2021/10/12 17:15:25;;;;;;;8.85;2.50;;;;;;;;;;12971813;22;20023;-86
2021/10/12 17:20:26;;;;;;;4.07;2.33;;;;;;;;;;12969529;22;20313;-86
2021/10/12 17:25:27;;;;;;;4.55;1.98;;;;;;;;;;12971233;22;20008;-87
2021/10/12 17:30:28;;;;;;;4.10;2.03;;;;;;;;;;12970142;22;20033;-87
2021/10/12 17:35:29;;;;;;;3.42;1.85;;;;;;;;;;12966687;22;20007;-87
2021/10/12 17:40:37;;;;;;;2.50;1.55;;;;;;;;;;12968585;22;20000;-86
2021/10/12 17:45:38;;;;;;;2.95;1.92;;;;;;;;;;12967113;22;19996;-86
2021/10/12 17:50:41;;;;;;;2.75;1.60;;;;;;;;;;12964290;22;20004;-86
2021/10/12 17:55:43;;;;;;;2.83;1.65;;;;;;;;;;12966691;22;20031;-86
2021/10/12 18:00:44;;;;;;;4.47;2.05;;;;;;;;;;12966118;22;20345;-86
2021/10/12 18:05:57;;;;;;;2.20;1.50;;;;;;;;;;12966846;22;20027;-86
2021/10/12 18:11:11;;;;;;;3.15;1.42;;;;;;;;;;12966032;22;20012;-86
2021/10/12 18:16:13;;;;;;;3.10;1.50;;;;;;;;;;12967259;22;20143;-86
2021/10/12 18:21:21;;;;;;;3.85;2.40;;;;;;;;;;12969717;22;20432;-87
2021/10/12 18:26:22;;;;;;;6.18;3.90;;;;;;;;;;12968281;22;20445;-86
2021/10/12 18:31:23;;;;;;;8.57;5.63;;;;;;;;;;12968911;22;20011;-86
2021/10/12 18:36:25;;;;;;;10.38;8.40;;;;;;;;;;12967613;22;20011;-86
2021/10/12 18:41:26;;;;;;;12.73;9.60;;;;;;;;;;12966270;22;20015;-86
2021/10/12 18:46:27;;;;;;;13.57;10.68;;;;;;;;;;12968086;22;20436;-86
2021/10/12 18:51:28;;;;;;;16.60;13.00;;;;;;;;;;12966984;22;20000;-86
2021/10/12 18:56:29;;;;;;;12.75;10.82;;;;;;;;;;12967943;22;20390;-86
2021/10/12 19:01:30;;;;;;;15.65;12.10;;;;;;;;;;12975915;22;20050;-86
2021/10/12 19:06:31;;;;;;;15.35;12.02;;;;;;;;;;12974150;22;20502;-86
2021/10/12 19:11:32;;;;;;;17.40;13.25;;;;;;;;;;12969692;22;20016;-87
2021/10/12 19:16:33;;;;;;;14.48;11.73;;;;;;;;;;12970372;22;20010;-87
2021/10/12 19:21:34;;;;;;;17.20;13.15;;;;;;;;;;12971347;22;20000;-87
2021/10/12 19:26:35;;;;;;;14.38;11.75;;;;;;;;;;12971762;22;20432;-87
2021/10/12 19:31:36;;;;;;;15.68;12.30;;;;;;;;;;12972322;22;20332;-88
2021/10/12 19:36:37;;;;;;;14.57;11.70;;;;;;;;;;12978558;22;20007;-87
2021/10/12 19:41:37;;;;;;;13.10;10.20;;;;;;;;;;13003928;22;20004;-87
2021/10/12 19:46:38;;;;;;;16.25;12.13;;;;;;;;;;12970726;22;20010;-87
2021/10/12 19:51:39;;;;;;;16.27;13.10;;;;;;;;;;12970046;22;20014;-87
2021/10/12 19:56:41;;;;;;;14.90;12.65;;;;;;;;;;12969470;22;20000;-87
2021/10/12 20:07:03;;;;;;;15.27;11.45;;;;;;;;;;12996254;22;20011;-87
2021/10/12 20:12:04;;;;;;;15.93;12.85;;;;;;;;;;12968879;22;20011;-87
